sensor_id;sensor_type;location;lat;lon;timestamp;temperature;humidity
44215;DHT22;29884;47.450;19.124;2023-07-13T00:01:48;25.50;99.90
44215;DHT22;29884;47.450;19.124;2023-07-13T00:04:16;25.40;99.90
44215;DHT22;29884;47.450;19.124;2023-07-13T00:06:43;25.30;99.90
44215;DHT22;29884;47.450;19.124;2023-07-13T00:09:12;25.20;99.90
44215;DHT22;29884;47.450;19.124;2023-07-13T00:11:38;25.00;99.90
44215;DHT22;29884;47.450;19.124;2023-07-13T00:14:04;25.00;99.90
44215;DHT22;29884;47.450;19.124;2023-07-13T00:16:30;24.90;99.90
44215;DHT22;29884;47.450;19.124;2023-07-13T00:18:56;24.80;99.90
44215;DHT22;29884;47.450;19.124;2023-07-13T00:21:22;24.60;99.90
44215;DHT22;29884;47.450;19.124;2023-07-13T00:23:48;24.40;99.90
44215;DHT22;29884;47.450;19.124;2023-07-13T00:26:14;24.30;99.90
44215;DHT22;29884;47.450;19.124;2023-07-13T00:28:39;24.10;99.90
44215;DHT22;29884;47.450;19.124;2023-07-13T00:31:08;24.10;99.90
44215;DHT22;29884;47.450;19.124;2023-07-13T00:33:33;24.00;99.90
44215;DHT22;29884;47.450;19.124;2023-07-13T00:35:59;24.10;99.90
44215;DHT22;29884;47.450;19.124;2023-07-13T00:38:25;24.10;99.90
44215;DHT22;29884;47.450;19.124;2023-07-13T00:40:50;24.10;99.90
44215;DHT22;29884;47.450;19.124;2023-07-13T00:43:21;24.20;99.90
44215;DHT22;29884;47.450;19.124;2023-07-13T00:48:19;24.20;99.90
44215;DHT22;29884;47.450;19.124;2023-07-13T00:50:52;24.20;99.90
44215;DHT22;29884;47.450;19.124;2023-07-13T00:53:19;24.20;99.90
44215;DHT22;29884;47.450;19.124;2023-07-13T00:55:46;24.20;99.90
44215;DHT22;29884;47.450;19.124;2023-07-13T00:58:13;24.20;99.90
44215;DHT22;29884;47.450;19.124;2023-07-13T01:00:39;24.10;99.90
44215;DHT22;29884;47.450;19.124;2023-07-13T01:03:06;24.10;99.90
44215;DHT22;29884;47.450;19.124;2023-07-13T01:05:33;24.10;99.90
44215;DHT22;29884;47.450;19.124;2023-07-13T01:08:01;24.10;99.90
44215;DHT22;29884;47.450;19.124;2023-07-13T01:10:27;24.00;99.90
44215;DHT22;29884;47.450;19.124;2023-07-13T01:12:53;24.00;99.90
44215;DHT22;29884;47.450;19.124;2023-07-13T01:15:44;24.00;99.90
44215;DHT22;29884;47.450;19.124;2023-07-13T01:18:31;24.00;99.90
44215;DHT22;29884;47.450;19.124;2023-07-13T01:23:24;24.00;99.90
44215;DHT22;29884;47.450;19.124;2023-07-13T01:25:50;24.00;99.90
44215;DHT22;29884;47.450;19.124;2023-07-13T01:28:17;23.90;99.90
44215;DHT22;29884;47.450;19.124;2023-07-13T01:30:44;23.90;99.90
44215;DHT22;29884;47.450;19.124;2023-07-13T01:33:13;23.90;99.90
44215;DHT22;29884;47.450;19.124;2023-07-13T01:35:39;23.80;99.90
44215;DHT22;29884;47.450;19.124;2023-07-13T01:38:05;23.80;99.90
44215;DHT22;29884;47.450;19.124;2023-07-13T01:40:32;23.80;99.90
44215;DHT22;29884;47.450;19.124;2023-07-13T01:42:58;23.70;99.90
44215;DHT22;29884;47.450;19.124;2023-07-13T01:45:24;23.70;99.90
44215;DHT22;29884;47.450;19.124;2023-07-13T01:47:50;23.60;99.90
44215;DHT22;29884;47.450;19.124;2023-07-13T01:50:15;23.50;99.90
44215;DHT22;29884;47.450;19.124;2023-07-13T01:52:41;23.50;99.90
44215;DHT22;29884;47.450;19.124;2023-07-13T01:55:08;23.50;99.90
44215;DHT22;29884;47.450;19.124;2023-07-13T01:57:33;23.50;99.90
44215;DHT22;29884;47.450;19.124;2023-07-13T02:00:00;23.50;99.90
44215;DHT22;29884;47.450;19.124;2023-07-13T02:02:26;23.40;99.90
44215;DHT22;29884;47.450;19.124;2023-07-13T02:04:52;23.40;99.90
44215;DHT22;29884;47.450;19.124;2023-07-13T02:07:17;23.30;99.90
44215;DHT22;29884;47.450;19.124;2023-07-13T02:09:43;23.30;99.90
44215;DHT22;29884;47.450;19.124;2023-07-13T02:12:09;23.30;99.90
44215;DHT22;29884;47.450;19.124;2023-07-13T02:14:34;23.20;99.90
44215;DHT22;29884;47.450;19.124;2023-07-13T02:17:00;23.20;99.90
44215;DHT22;29884;47.450;19.124;2023-07-13T02:19:26;23.20;99.90
44215;DHT22;29884;47.450;19.124;2023-07-13T02:21:52;23.20;99.90
44215;DHT22;29884;47.450;19.124;2023-07-13T02:24:17;23.20;99.90
44215;DHT22;29884;47.450;19.124;2023-07-13T02:26:45;23.20;99.90
44215;DHT22;29884;47.450;19.124;2023-07-13T02:29:10;23.10;99.90
44215;DHT22;29884;47.450;19.124;2023-07-13T02:31:36;23.00;99.90
44215;DHT22;29884;47.450;19.124;2023-07-13T02:34:02;23.00;99.90
44215;DHT22;29884;47.450;19.124;2023-07-13T02:36:29;23.00;99.90
44215;DHT22;29884;47.450;19.124;2023-07-13T02:38:55;23.00;99.90
44215;DHT22;29884;47.450;19.124;2023-07-13T02:41:21;23.00;99.90
44215;DHT22;29884;47.450;19.124;2023-07-13T02:43:48;22.90;99.90
44215;DHT22;29884;47.450;19.124;2023-07-13T02:46:14;22.90;99.90
44215;DHT22;29884;47.450;19.124;2023-07-13T02:48:40;22.80;99.90
44215;DHT22;29884;47.450;19.124;2023-07-13T02:51:06;22.80;99.90
44215;DHT22;29884;47.450;19.124;2023-07-13T02:53:33;22.80;99.90
44215;DHT22;29884;47.450;19.124;2023-07-13T02:56:01;22.80;99.90
44215;DHT22;29884;47.450;19.124;2023-07-13T02:58:27;22.70;99.90
44215;DHT22;29884;47.450;19.124;2023-07-13T03:00:53;22.70;99.90
44215;DHT22;29884;47.450;19.124;2023-07-13T03:03:19;22.70;99.90
44215;DHT22;29884;47.450;19.124;2023-07-13T03:05:45;22.70;99.90
44215;DHT22;29884;47.450;19.124;2023-07-13T03:08:15;22.70;99.90
44215;DHT22;29884;47.450;19.124;2023-07-13T03:10:41;22.60;99.90
44215;DHT22;29884;47.450;19.124;2023-07-13T03:13:07;22.60;99.90
44215;DHT22;29884;47.450;19.124;2023-07-13T03:15:32;22.70;99.90
44215;DHT22;29884;47.450;19.124;2023-07-13T03:17:58;22.70;99.90
44215;DHT22;29884;47.450;19.124;2023-07-13T03:20:24;22.70;99.90
44215;DHT22;29884;47.450;19.124;2023-07-13T03:22:49;22.70;99.90
44215;DHT22;29884;47.450;19.124;2023-07-13T03:25:15;22.60;99.90
44215;DHT22;29884;47.450;19.124;2023-07-13T03:27:41;22.60;99.90
44215;DHT22;29884;47.450;19.124;2023-07-13T03:30:07;22.60;99.90
44215;DHT22;29884;47.450;19.124;2023-07-13T03:32:33;22.60;99.90
44215;DHT22;29884;47.450;19.124;2023-07-13T03:34:58;22.60;99.90
44215;DHT22;29884;47.450;19.124;2023-07-13T03:37:24;22.60;99.90
44215;DHT22;29884;47.450;19.124;2023-07-13T03:39:50;22.60;99.90
44215;DHT22;29884;47.450;19.124;2023-07-13T03:42:16;22.50;99.90
44215;DHT22;29884;47.450;19.124;2023-07-13T03:44:42;22.50;99.90
44215;DHT22;29884;47.450;19.124;2023-07-13T03:47:11;22.50;99.90
44215;DHT22;29884;47.450;19.124;2023-07-13T03:49:37;22.50;99.90
44215;DHT22;29884;47.450;19.124;2023-07-13T03:52:03;22.60;99.90
44215;DHT22;29884;47.450;19.124;2023-07-13T03:54:29;22.60;99.90
44215;DHT22;29884;47.450;19.124;2023-07-13T03:56:55;22.60;99.90
44215;DHT22;29884;47.450;19.124;2023-07-13T03:59:21;22.60;99.90
44215;DHT22;29884;47.450;19.124;2023-07-13T04:01:47;22.60;99.90
44215;DHT22;29884;47.450;19.124;2023-07-13T04:04:12;22.60;99.90
44215;DHT22;29884;47.450;19.124;2023-07-13T04:06:38;22.60;99.90
44215;DHT22;29884;47.450;19.124;2023-07-13T04:09:04;22.70;99.90
44215;DHT22;29884;47.450;19.124;2023-07-13T04:11:34;22.70;99.90
44215;DHT22;29884;47.450;19.124;2023-07-13T04:14:02;22.80;99.90
44215;DHT22;29884;47.450;19.124;2023-07-13T04:16:28;22.80;99.90
44215;DHT22;29884;47.450;19.124;2023-07-13T04:18:55;22.80;99.90
44215;DHT22;29884;47.450;19.124;2023-07-13T04:21:25;22.80;99.90
44215;DHT22;29884;47.450;19.124;2023-07-13T04:23:51;22.90;99.90
44215;DHT22;29884;47.450;19.124;2023-07-13T04:26:16;22.80;99.90
44215;DHT22;29884;47.450;19.124;2023-07-13T04:28:42;22.70;99.90
44215;DHT22;29884;47.450;19.124;2023-07-13T04:31:08;22.70;99.90
44215;DHT22;29884;47.450;19.124;2023-07-13T04:33:33;22.70;99.90
44215;DHT22;29884;47.450;19.124;2023-07-13T04:35:59;22.70;99.90
44215;DHT22;29884;47.450;19.124;2023-07-13T04:38:30;22.70;99.90
44215;DHT22;29884;47.450;19.124;2023-07-13T04:40:58;22.70;99.90
44215;DHT22;29884;47.450;19.124;2023-07-13T04:43:25;22.70;99.90
44215;DHT22;29884;47.450;19.124;2023-07-13T04:45:52;22.70;99.90
44215;DHT22;29884;47.450;19.124;2023-07-13T04:48:18;22.70;99.90
44215;DHT22;29884;47.450;19.124;2023-07-13T04:50:44;22.80;99.90
44215;DHT22;29884;47.450;19.124;2023-07-13T04:53:10;22.80;99.90
44215;DHT22;29884;47.450;19.124;2023-07-13T04:55:37;22.80;99.90
44215;DHT22;29884;47.450;19.124;2023-07-13T04:58:03;22.80;99.90
44215;DHT22;29884;47.450;19.124;2023-07-13T05:00:29;22.70;99.90
44215;DHT22;29884;47.450;19.124;2023-07-13T05:02:56;22.70;99.90
44215;DHT22;29884;47.450;19.124;2023-07-13T05:05:23;22.70;99.90
44215;DHT22;29884;47.450;19.124;2023-07-13T05:07:48;22.70;99.90
44215;DHT22;29884;47.450;19.124;2023-07-13T05:10:14;22.70;99.90
44215;DHT22;29884;47.450;19.124;2023-07-13T05:12:40;22.60;99.90
44215;DHT22;29884;47.450;19.124;2023-07-13T05:15:06;22.60;99.90
44215;DHT22;29884;47.450;19.124;2023-07-13T05:17:32;22.30;99.90
44215;DHT22;29884;47.450;19.124;2023-07-13T05:19:58;22.10;99.90
44215;DHT22;29884;47.450;19.124;2023-07-13T05:22:24;21.80;99.90
44215;DHT22;29884;47.450;19.124;2023-07-13T05:24:50;21.60;99.90
44215;DHT22;29884;47.450;19.124;2023-07-13T05:27:16;21.50;99.90
44215;DHT22;29884;47.450;19.124;2023-07-13T05:29:41;21.30;99.90
44215;DHT22;29884;47.450;19.124;2023-07-13T05:32:07;21.10;99.90
44215;DHT22;29884;47.450;19.124;2023-07-13T05:34:33;20.90;99.90
44215;DHT22;29884;47.450;19.124;2023-07-13T05:36:59;20.80;99.90
44215;DHT22;29884;47.450;19.124;2023-07-13T05:39:25;20.70;99.90
44215;DHT22;29884;47.450;19.124;2023-07-13T05:41:51;20.60;99.90
44215;DHT22;29884;47.450;19.124;2023-07-13T05:44:17;20.60;99.90
44215;DHT22;29884;47.450;19.124;2023-07-13T05:46:44;20.60;99.90
44215;DHT22;29884;47.450;19.124;2023-07-13T05:49:10;20.50;99.90
44215;DHT22;29884;47.450;19.124;2023-07-13T05:51:36;20.50;99.90
44215;DHT22;29884;47.450;19.124;2023-07-13T05:54:02;20.50;99.90
44215;DHT22;29884;47.450;19.124;2023-07-13T05:56:27;20.50;99.90
44215;DHT22;29884;47.450;19.124;2023-07-13T05:58:53;20.40;99.90
44215;DHT22;29884;47.450;19.124;2023-07-13T06:01:19;20.30;99.90
44215;DHT22;29884;47.450;19.124;2023-07-13T06:03:46;20.30;99.90
44215;DHT22;29884;47.450;19.124;2023-07-13T06:06:12;20.20;99.90
44215;DHT22;29884;47.450;19.124;2023-07-13T06:08:38;20.10;99.90
44215;DHT22;29884;47.450;19.124;2023-07-13T06:11:08;20.00;99.90
44215;DHT22;29884;47.450;19.124;2023-07-13T06:13:35;20.00;99.90
44215;DHT22;29884;47.450;19.124;2023-07-13T06:16:02;19.80;99.90
44215;DHT22;29884;47.450;19.124;2023-07-13T06:18:30;19.70;99.90
44215;DHT22;29884;47.450;19.124;2023-07-13T06:20:56;19.50;99.90
44215;DHT22;29884;47.450;19.124;2023-07-13T06:23:23;19.60;99.90
44215;DHT22;29884;47.450;19.124;2023-07-13T06:25:48;19.50;99.90
44215;DHT22;29884;47.450;19.124;2023-07-13T06:28:14;19.60;99.90
44215;DHT22;29884;47.450;19.124;2023-07-13T06:30:40;19.60;99.90
44215;DHT22;29884;47.450;19.124;2023-07-13T06:33:06;19.60;99.90
44215;DHT22;29884;47.450;19.124;2023-07-13T06:35:31;19.60;99.90
44215;DHT22;29884;47.450;19.124;2023-07-13T06:37:57;19.60;99.90
44215;DHT22;29884;47.450;19.124;2023-07-13T06:40:23;19.60;99.90
44215;DHT22;29884;47.450;19.124;2023-07-13T06:42:49;19.70;99.90
44215;DHT22;29884;47.450;19.124;2023-07-13T06:45:14;19.70;99.90
44215;DHT22;29884;47.450;19.124;2023-07-13T06:47:40;19.80;99.90
44215;DHT22;29884;47.450;19.124;2023-07-13T06:50:07;19.80;99.90
44215;DHT22;29884;47.450;19.124;2023-07-13T06:52:33;19.90;99.90
44215;DHT22;29884;47.450;19.124;2023-07-13T06:54:58;19.90;99.90
44215;DHT22;29884;47.450;19.124;2023-07-13T06:57:24;20.00;99.90
44215;DHT22;29884;47.450;19.124;2023-07-13T06:59:50;20.00;99.90
44215;DHT22;29884;47.450;19.124;2023-07-13T07:02:15;20.10;99.90
44215;DHT22;29884;47.450;19.124;2023-07-13T07:04:41;20.20;99.90
44215;DHT22;29884;47.450;19.124;2023-07-13T07:07:07;20.30;99.90
44215;DHT22;29884;47.450;19.124;2023-07-13T07:09:32;20.40;99.90
44215;DHT22;29884;47.450;19.124;2023-07-13T07:11:58;20.50;99.90
44215;DHT22;29884;47.450;19.124;2023-07-13T07:14:24;20.70;99.90
44215;DHT22;29884;47.450;19.124;2023-07-13T07:16:50;20.90;99.90
44215;DHT22;29884;47.450;19.124;2023-07-13T07:19:16;21.00;99.90
44215;DHT22;29884;47.450;19.124;2023-07-13T07:21:42;21.20;99.90
44215;DHT22;29884;47.450;19.124;2023-07-13T07:24:08;21.40;99.90
44215;DHT22;29884;47.450;19.124;2023-07-13T07:26:34;21.60;99.90
44215;DHT22;29884;47.450;19.124;2023-07-13T07:28:59;21.60;99.90
44215;DHT22;29884;47.450;19.124;2023-07-13T07:31:25;21.80;99.90
44215;DHT22;29884;47.450;19.124;2023-07-13T07:33:51;21.90;99.90
44215;DHT22;29884;47.450;19.124;2023-07-13T07:36:17;22.00;99.90
44215;DHT22;29884;47.450;19.124;2023-07-13T07:38:43;22.20;99.90
44215;DHT22;29884;47.450;19.124;2023-07-13T07:41:09;22.40;99.90
44215;DHT22;29884;47.450;19.124;2023-07-13T07:43:36;22.40;99.90
44215;DHT22;29884;47.450;19.124;2023-07-13T07:46:02;22.30;99.90
44215;DHT22;29884;47.450;19.124;2023-07-13T07:48:28;22.50;99.90
44215;DHT22;29884;47.450;19.124;2023-07-13T07:50:54;22.60;99.90
44215;DHT22;29884;47.450;19.124;2023-07-13T07:53:20;22.70;99.90
44215;DHT22;29884;47.450;19.124;2023-07-13T07:55:45;22.80;99.90
44215;DHT22;29884;47.450;19.124;2023-07-13T07:58:11;22.70;99.90
44215;DHT22;29884;47.450;19.124;2023-07-13T08:00:37;22.80;99.90
44215;DHT22;29884;47.450;19.124;2023-07-13T08:03:03;22.80;99.90
44215;DHT22;29884;47.450;19.124;2023-07-13T08:05:29;22.90;99.90
44215;DHT22;29884;47.450;19.124;2023-07-13T08:07:55;23.10;99.90
44215;DHT22;29884;47.450;19.124;2023-07-13T08:10:21;23.20;99.90
44215;DHT22;29884;47.450;19.124;2023-07-13T08:12:46;23.20;99.90
44215;DHT22;29884;47.450;19.124;2023-07-13T08:15:14;23.30;99.90
44215;DHT22;29884;47.450;19.124;2023-07-13T08:17:40;23.60;99.90
44215;DHT22;29884;47.450;19.124;2023-07-13T08:20:07;23.80;99.90
44215;DHT22;29884;47.450;19.124;2023-07-13T08:22:34;24.00;99.90
44215;DHT22;29884;47.450;19.124;2023-07-13T08:25:01;24.20;99.90
44215;DHT22;29884;47.450;19.124;2023-07-13T08:27:28;24.20;99.90
44215;DHT22;29884;47.450;19.124;2023-07-13T08:29:54;24.20;99.90
44215;DHT22;29884;47.450;19.124;2023-07-13T08:32:21;24.30;99.90
44215;DHT22;29884;47.450;19.124;2023-07-13T08:34:47;24.50;99.90
44215;DHT22;29884;47.450;19.124;2023-07-13T08:37:14;24.60;99.90
44215;DHT22;29884;47.450;19.124;2023-07-13T08:39:40;24.80;99.90
44215;DHT22;29884;47.450;19.124;2023-07-13T08:42:39;24.80;99.90
44215;DHT22;29884;47.450;19.124;2023-07-13T08:48:08;25.10;99.90
44215;DHT22;29884;47.450;19.124;2023-07-13T08:53:45;25.50;99.90
44215;DHT22;29884;47.450;19.124;2023-07-13T08:56:17;25.60;99.90
44215;DHT22;29884;47.450;19.124;2023-07-13T08:58:45;26.00;99.90
44215;DHT22;29884;47.450;19.124;2023-07-13T09:04:34;26.50;99.90
44215;DHT22;29884;47.450;19.124;2023-07-13T09:12:46;26.40;99.90
44215;DHT22;29884;47.450;19.124;2023-07-13T09:15:31;26.50;99.90
44215;DHT22;29884;47.450;19.124;2023-07-13T09:18:10;26.80;99.90
44215;DHT22;29884;47.450;19.124;2023-07-13T09:20:54;27.00;99.90
44215;DHT22;29884;47.450;19.124;2023-07-13T09:23:24;27.10;99.90
44215;DHT22;29884;47.450;19.124;2023-07-13T09:25:54;27.20;99.90
44215;DHT22;29884;47.450;19.124;2023-07-13T09:28:27;27.50;99.90
44215;DHT22;29884;47.450;19.124;2023-07-13T09:33:33;27.80;99.90
44215;DHT22;29884;47.450;19.124;2023-07-13T09:36:01;27.80;99.90
44215;DHT22;29884;47.450;19.124;2023-07-13T09:38:29;28.20;99.90
44215;DHT22;29884;47.450;19.124;2023-07-13T09:43:39;27.40;99.90
44215;DHT22;29884;47.450;19.124;2023-07-13T09:46:24;27.60;99.90
44215;DHT22;29884;47.450;19.124;2023-07-13T09:48:50;27.90;99.90
44215;DHT22;29884;47.450;19.124;2023-07-13T09:51:16;27.60;99.90
44215;DHT22;29884;47.450;19.124;2023-07-13T09:53:43;27.30;99.90
44215;DHT22;29884;47.450;19.124;2023-07-13T09:56:22;27.20;99.90
44215;DHT22;29884;47.450;19.124;2023-07-13T09:58:49;27.00;99.90
44215;DHT22;29884;47.450;19.124;2023-07-13T10:01:15;27.10;99.90
44215;DHT22;29884;47.450;19.124;2023-07-13T10:03:52;27.10;99.90
44215;DHT22;29884;47.450;19.124;2023-07-13T10:06:20;27.20;99.90
44215;DHT22;29884;47.450;19.124;2023-07-13T10:08:49;27.20;99.90
44215;DHT22;29884;47.450;19.124;2023-07-13T10:11:24;27.50;99.90
44215;DHT22;29884;47.450;19.124;2023-07-13T10:13:54;27.40;99.90
44215;DHT22;29884;47.450;19.124;2023-07-13T10:16:26;27.60;99.90
44215;DHT22;29884;47.450;19.124;2023-07-13T10:18:59;28.20;99.90
44215;DHT22;29884;47.450;19.124;2023-07-13T10:21:35;28.40;99.90
44215;DHT22;29884;47.450;19.124;2023-07-13T10:24:12;28.60;99.90
44215;DHT22;29884;47.450;19.124;2023-07-13T10:27:28;28.50;99.90
44215;DHT22;29884;47.450;19.124;2023-07-13T10:29:37;28.70;99.90
44215;DHT22;29884;47.450;19.124;2023-07-13T10:32:10;29.00;99.90
44215;DHT22;29884;47.450;19.124;2023-07-13T10:34:36;29.20;99.90
44215;DHT22;29884;47.450;19.124;2023-07-13T10:37:05;29.20;99.90
44215;DHT22;29884;47.450;19.124;2023-07-13T10:39:35;29.30;99.90
44215;DHT22;29884;47.450;19.124;2023-07-13T10:42:04;29.30;99.90
44215;DHT22;29884;47.450;19.124;2023-07-13T10:44:32;29.40;99.90
44215;DHT22;29884;47.450;19.124;2023-07-13T10:47:08;29.40;99.90
44215;DHT22;29884;47.450;19.124;2023-07-13T10:49:39;29.40;99.90
44215;DHT22;29884;47.450;19.124;2023-07-13T10:52:20;29.60;98.90
44215;DHT22;29884;47.450;19.124;2023-07-13T10:54:52;29.50;98.20
44215;DHT22;29884;47.450;19.124;2023-07-13T10:57:21;29.50;99.90
44215;DHT22;29884;47.450;19.124;2023-07-13T11:00:17;29.90;98.10
44215;DHT22;29884;47.450;19.124;2023-07-13T11:02:43;30.40;97.70
44215;DHT22;29884;47.450;19.124;2023-07-13T11:08:02;29.90;94.90
44215;DHT22;29884;47.450;19.124;2023-07-13T11:10:48;30.10;95.60
44215;DHT22;29884;47.450;19.124;2023-07-13T11:16:13;30.60;93.30
44215;DHT22;29884;47.450;19.124;2023-07-13T11:18:38;30.40;93.40
44215;DHT22;29884;47.450;19.124;2023-07-13T11:21:15;30.40;94.10
44215;DHT22;29884;47.450;19.124;2023-07-13T11:23:43;30.70;91.40
44215;DHT22;29884;47.450;19.124;2023-07-13T11:29:27;30.50;91.00
44215;DHT22;29884;47.450;19.124;2023-07-13T11:32:00;30.40;90.70
44215;DHT22;29884;47.450;19.124;2023-07-13T11:34:27;30.40;91.80
44215;DHT22;29884;47.450;19.124;2023-07-13T11:36:56;30.40;91.80
44215;DHT22;29884;47.450;19.124;2023-07-13T11:39:24;30.30;91.10
44215;DHT22;29884;47.450;19.124;2023-07-13T11:42:05;30.60;90.60
44215;DHT22;29884;47.450;19.124;2023-07-13T11:44:34;30.50;89.80
44215;DHT22;29884;47.450;19.124;2023-07-13T11:47:21;30.60;90.70
44215;DHT22;29884;47.450;19.124;2023-07-13T11:49:55;30.70;91.40
44215;DHT22;29884;47.450;19.124;2023-07-13T11:52:36;30.90;83.90
44215;DHT22;29884;47.450;19.124;2023-07-13T11:55:13;30.80;82.80
44215;DHT22;29884;47.450;19.124;2023-07-13T11:57:57;30.60;83.80
44215;DHT22;29884;47.450;19.124;2023-07-13T12:00:28;30.50;83.90
44215;DHT22;29884;47.450;19.124;2023-07-13T12:02:56;30.70;82.40
44215;DHT22;29884;47.450;19.124;2023-07-13T12:05:23;30.60;82.40
44215;DHT22;29884;47.450;19.124;2023-07-13T12:07:49;30.70;84.60
44215;DHT22;29884;47.450;19.124;2023-07-13T12:10:22;31.00;86.00
44215;DHT22;29884;47.450;19.124;2023-07-13T12:13:04;31.10;85.10
44215;DHT22;29884;47.450;19.124;2023-07-13T12:15:45;31.00;81.20
44215;DHT22;29884;47.450;19.124;2023-07-13T12:18:15;30.90;83.90
44215;DHT22;29884;47.450;19.124;2023-07-13T12:20:41;30.60;81.40
44215;DHT22;29884;47.450;19.124;2023-07-13T12:25:53;30.50;82.80
44215;DHT22;29884;47.450;19.124;2023-07-13T12:31:02;31.40;83.60
44215;DHT22;29884;47.450;19.124;2023-07-13T12:33:29;31.80;79.50
44215;DHT22;29884;47.450;19.124;2023-07-13T12:35:56;31.40;78.70
44215;DHT22;29884;47.450;19.124;2023-07-13T12:38:25;31.40;77.90
44215;DHT22;29884;47.450;19.124;2023-07-13T12:40:52;31.00;77.40
44215;DHT22;29884;47.450;19.124;2023-07-13T12:43:20;31.00;77.90
44215;DHT22;29884;47.450;19.124;2023-07-13T12:45:58;30.50;80.60
44215;DHT22;29884;47.450;19.124;2023-07-13T12:48:24;30.70;80.20
44215;DHT22;29884;47.450;19.124;2023-07-13T12:50:54;31.00;78.70
44215;DHT22;29884;47.450;19.124;2023-07-13T12:53:28;31.00;78.40
44215;DHT22;29884;47.450;19.124;2023-07-13T12:55:58;30.80;79.00
44215;DHT22;29884;47.450;19.124;2023-07-13T12:58:39;30.70;81.10
44215;DHT22;29884;47.450;19.124;2023-07-13T13:01:08;30.60;82.80
44215;DHT22;29884;47.450;19.124;2023-07-13T13:03:37;30.70;80.70
44215;DHT22;29884;47.450;19.124;2023-07-13T13:06:05;30.70;81.60
44215;DHT22;29884;47.450;19.124;2023-07-13T13:08:35;30.60;79.90
44215;DHT22;29884;47.450;19.124;2023-07-13T13:11:02;30.50;79.60
44215;DHT22;29884;47.450;19.124;2023-07-13T13:13:28;30.70;80.60
44215;DHT22;29884;47.450;19.124;2023-07-13T13:15:54;31.00;80.10
44215;DHT22;29884;47.450;19.124;2023-07-13T13:18:22;30.90;81.00
44215;DHT22;29884;47.450;19.124;2023-07-13T13:20:49;31.00;79.90
44215;DHT22;29884;47.450;19.124;2023-07-13T13:23:17;30.90;79.10
44215;DHT22;29884;47.450;19.124;2023-07-13T13:25:48;30.60;80.00
44215;DHT22;29884;47.450;19.124;2023-07-13T13:28:20;30.80;80.50
44215;DHT22;29884;47.450;19.124;2023-07-13T13:30:49;31.00;78.10
44215;DHT22;29884;47.450;19.124;2023-07-13T13:33:18;31.10;75.20
44215;DHT22;29884;47.450;19.124;2023-07-13T13:35:44;31.30;75.20
44215;DHT22;29884;47.450;19.124;2023-07-13T13:38:15;31.30;73.90
44215;DHT22;29884;47.450;19.124;2023-07-13T13:40:42;31.10;73.40
44215;DHT22;29884;47.450;19.124;2023-07-13T13:43:25;30.90;73.40
44215;DHT22;29884;47.450;19.124;2023-07-13T13:45:57;30.90;73.10
44215;DHT22;29884;47.450;19.124;2023-07-13T13:48:32;30.40;75.10
44215;DHT22;29884;47.450;19.124;2023-07-13T13:51:00;30.60;76.30
44215;DHT22;29884;47.450;19.124;2023-07-13T13:53:26;30.70;76.00
44215;DHT22;29884;47.450;19.124;2023-07-13T13:55:52;30.70;75.50
44215;DHT22;29884;47.450;19.124;2023-07-13T13:58:20;30.70;75.20
44215;DHT22;29884;47.450;19.124;2023-07-13T14:00:47;30.50;74.60
44215;DHT22;29884;47.450;19.124;2023-07-13T14:03:18;30.50;74.20
44215;DHT22;29884;47.450;19.124;2023-07-13T14:05:44;30.50;76.30
44215;DHT22;29884;47.450;19.124;2023-07-13T14:08:18;30.40;76.10
44215;DHT22;29884;47.450;19.124;2023-07-13T14:10:45;30.40;77.20
44215;DHT22;29884;47.450;19.124;2023-07-13T14:13:21;30.10;76.90
44215;DHT22;29884;47.450;19.124;2023-07-13T14:15:47;29.80;78.80
44215;DHT22;29884;47.450;19.124;2023-07-13T14:18:14;29.70;81.30
44215;DHT22;29884;47.450;19.124;2023-07-13T14:20:44;29.50;81.40
44215;DHT22;29884;47.450;19.124;2023-07-13T14:23:12;29.40;82.90
44215;DHT22;29884;47.450;19.124;2023-07-13T14:25:38;29.30;84.60
44215;DHT22;29884;47.450;19.124;2023-07-13T14:28:24;29.30;86.10
44215;DHT22;29884;47.450;19.124;2023-07-13T14:30:51;29.20;85.70
44215;DHT22;29884;47.450;19.124;2023-07-13T14:33:17;29.20;86.70
44215;DHT22;29884;47.450;19.124;2023-07-13T14:35:43;29.10;85.00
44215;DHT22;29884;47.450;19.124;2023-07-13T14:38:18;28.70;87.70
44215;DHT22;29884;47.450;19.124;2023-07-13T14:40:45;28.70;88.50
44215;DHT22;29884;47.450;19.124;2023-07-13T14:43:15;28.80;89.70
44215;DHT22;29884;47.450;19.124;2023-07-13T14:45:44;28.80;89.20
44215;DHT22;29884;47.450;19.124;2023-07-13T14:48:23;28.60;90.10
44215;DHT22;29884;47.450;19.124;2023-07-13T14:50:57;28.70;90.50
44215;DHT22;29884;47.450;19.124;2023-07-13T14:53:25;28.60;91.00
44215;DHT22;29884;47.450;19.124;2023-07-13T14:55:53;28.50;91.10
44215;DHT22;29884;47.450;19.124;2023-07-13T14:58:19;28.50;91.70
44215;DHT22;29884;47.450;19.124;2023-07-13T15:00:45;28.50;91.30
44215;DHT22;29884;47.450;19.124;2023-07-13T15:03:23;28.50;91.80
44215;DHT22;29884;47.450;19.124;2023-07-13T15:05:50;28.50;91.30
44215;DHT22;29884;47.450;19.124;2023-07-13T15:08:16;28.50;91.10
44215;DHT22;29884;47.450;19.124;2023-07-13T15:10:42;28.40;91.10
44215;DHT22;29884;47.450;19.124;2023-07-13T15:13:19;28.30;90.80
44215;DHT22;29884;47.450;19.124;2023-07-13T15:15:48;28.30;91.50
44215;DHT22;29884;47.450;19.124;2023-07-13T15:18:16;28.30;91.20
44215;DHT22;29884;47.450;19.124;2023-07-13T15:20:44;28.20;91.20
44215;DHT22;29884;47.450;19.124;2023-07-13T15:23:11;28.20;91.00
44215;DHT22;29884;47.450;19.124;2023-07-13T15:25:37;28.10;90.80
44215;DHT22;29884;47.450;19.124;2023-07-13T15:28:03;28.10;90.90
44215;DHT22;29884;47.450;19.124;2023-07-13T15:30:33;28.00;90.30
44215;DHT22;29884;47.450;19.124;2023-07-13T15:33:14;28.00;90.70
44215;DHT22;29884;47.450;19.124;2023-07-13T15:35:42;28.00;90.70
44215;DHT22;29884;47.450;19.124;2023-07-13T15:38:18;28.00;90.40
44215;DHT22;29884;47.450;19.124;2023-07-13T15:40:46;28.00;90.50
44215;DHT22;29884;47.450;19.124;2023-07-13T15:43:13;28.00;90.50
44215;DHT22;29884;47.450;19.124;2023-07-13T15:45:39;27.90;90.70
44215;DHT22;29884;47.450;19.124;2023-07-13T15:48:25;27.80;90.70
44215;DHT22;29884;47.450;19.124;2023-07-13T15:50:54;27.80;91.10
44215;DHT22;29884;47.450;19.124;2023-07-13T15:53:24;27.80;91.40
44215;DHT22;29884;47.450;19.124;2023-07-13T15:55:50;27.70;91.60
44215;DHT22;29884;47.450;19.124;2023-07-13T15:58:17;27.70;91.60
44215;DHT22;29884;47.450;19.124;2023-07-13T16:00:44;27.70;92.00
44215;DHT22;29884;47.450;19.124;2023-07-13T16:03:10;27.70;91.50